sensor_id;sensor_type;location;lat;lon;timestamp;pressure;altitude;pressure_sealevel;temperature;humidity
46476;BME280;53376;51.114;14.738;2022-12-16T00:00:47;97709.72;;;-1.38;61.58
46476;BME280;53376;51.114;14.738;2022-12-16T00:03:27;97701.06;;;-1.40;61.83
46476;BME280;53376;51.114;14.738;2022-12-16T00:06:08;97700.22;;;-1.41;61.81
46476;BME280;53376;51.114;14.738;2022-12-16T00:08:37;97693.25;;;-1.40;61.60
46476;BME280;53376;51.114;14.738;2022-12-16T00:11:17;97686.31;;;-1.41;61.54
46476;BME280;53376;51.114;14.738;2022-12-16T00:13:44;97688.97;;;-1.43;61.55
46476;BME280;53376;51.114;14.738;2022-12-16T00:16:27;97682.06;;;-1.46;61.42
46476;BME280;53376;51.114;14.738;2022-12-16T00:29:08;97684.75;;;-1.49;61.77
46476;BME280;53376;51.114;14.738;2022-12-16T00:31:50;97679.53;;;-1.49;61.85
46476;BME280;53376;51.114;14.738;2022-12-16T00:34:31;97679.53;;;-1.49;61.83
46476;BME280;53376;51.114;14.738;2022-12-16T00:36:58;97670.81;;;-1.48;61.77
46476;BME280;53376;51.114;14.738;2022-12-16T00:39:38;97672.53;;;-1.47;61.63
46476;BME280;53376;51.114;14.738;2022-12-16T00:42:05;97665.56;;;-1.46;61.82
46476;BME280;53376;51.114;14.738;2022-12-16T00:55:17;97667.25;;;-1.43;61.71
46476;BME280;53376;51.114;14.738;2022-12-16T00:57:58;97660.34;;;-1.44;61.70
46476;BME280;53376;51.114;14.738;2022-12-16T01:00:25;97665.53;;;-1.44;61.69
46476;BME280;53376;51.114;14.738;2022-12-16T01:03:05;97670.75;;;-1.44;61.69
46476;BME280;53376;51.114;14.738;2022-12-16T01:05:32;97667.25;;;-1.43;61.66
46476;BME280;53376;51.114;14.738;2022-12-16T01:08:12;97677.69;;;-1.43;61.60
46476;BME280;53376;51.114;14.738;2022-12-16T01:21:01;97683.78;;;-1.44;61.50
46476;BME280;53376;51.114;14.738;2022-12-16T01:23:41;97684.69;;;-1.46;61.70
46476;BME280;53376;51.114;14.738;2022-12-16T01:26:21;97688.13;;;-1.45;61.47
46476;BME280;53376;51.114;14.738;2022-12-16T01:28:48;97679.47;;;-1.46;61.69
46476;BME280;53376;51.114;14.738;2022-12-16T01:31:28;97689.00;;;-1.44;61.50
46476;BME280;53376;51.114;14.738;2022-12-16T01:33:55;97679.47;;;-1.46;61.53
46476;BME280;53376;51.114;14.738;2022-12-16T01:36:37;97680.34;;;-1.47;61.50
46476;BME280;53376;51.114;14.738;2022-12-16T01:49:24;97663.81;;;-1.46;61.61
46476;BME280;53376;51.114;14.738;2022-12-16T01:52:16;97656.06;;;-1.49;61.38
46476;BME280;53376;51.114;14.738;2022-12-16T01:55:02;97661.31;;;-1.50;61.58
46476;BME280;53376;51.114;14.738;2022-12-16T01:57:47;97662.19;;;-1.50;61.67
46476;BME280;53376;51.114;14.738;2022-12-16T02:00:30;97664.75;;;-1.48;61.62
46476;BME280;53376;51.114;14.738;2022-12-16T02:02:58;97664.81;;;-1.50;61.69
46476;BME280;53376;51.114;14.738;2022-12-16T02:16:15;97669.97;;;-1.48;61.50
46476;BME280;53376;51.114;14.738;2022-12-16T02:19:09;97664.81;;;-1.50;61.71
46476;BME280;53376;51.114;14.738;2022-12-16T02:22:11;97662.19;;;-1.50;61.54
46476;BME280;53376;51.114;14.738;2022-12-16T02:25:25;97664.88;;;-1.53;61.76
46476;BME280;53376;51.114;14.738;2022-12-16T02:28:17;97657.88;;;-1.52;61.81
46476;BME280;53376;51.114;14.738;2022-12-16T02:41:42;97636.13;;;-1.50;61.63
46476;BME280;53376;51.114;14.738;2022-12-16T02:44:38;97630.94;;;-1.50;61.68
46476;BME280;53376;51.114;14.738;2022-12-16T02:47:15;97630.94;;;-1.50;61.40
46476;BME280;53376;51.114;14.738;2022-12-16T02:49:55;97627.50;;;-1.52;61.60
46476;BME280;53376;51.114;14.738;2022-12-16T02:52:25;97623.13;;;-1.51;61.66
46476;BME280;53376;51.114;14.738;2022-12-16T02:55:09;97630.06;;;-1.50;61.64
46476;BME280;53376;51.114;14.738;2022-12-16T02:57:56;97627.41;;;-1.49;61.52
46476;BME280;53376;51.114;14.738;2022-12-16T03:07:52;97623.13;;;-1.51;61.63
46476;BME280;53376;51.114;14.738;2022-12-16T03:10:41;97629.22;;;-1.51;61.78
46476;BME280;53376;51.114;14.738;2022-12-16T03:13:29;97629.22;;;-1.51;61.76
46476;BME280;53376;51.114;14.738;2022-12-16T03:16:09;97627.50;;;-1.52;61.58
46476;BME280;53376;51.114;14.738;2022-12-16T03:19:01;97622.19;;;-1.49;61.78
46476;BME280;53376;51.114;14.738;2022-12-16T03:21:42;97618.78;;;-1.51;61.67
46476;BME280;53376;51.114;14.738;2022-12-16T03:35:01;97610.03;;;-1.48;61.96
46476;BME280;53376;51.114;14.738;2022-12-16T03:37:52;97607.47;;;-1.50;61.99
46476;BME280;53376;51.114;14.738;2022-12-16T03:40:28;97606.53;;;-1.49;62.06
46476;BME280;53376;51.114;14.738;2022-12-16T03:43:14;97611.75;;;-1.49;62.13
46476;BME280;53376;51.114;14.738;2022-12-16T03:45:52;97610.03;;;-1.48;62.11
46476;BME280;53376;51.114;14.738;2022-12-16T04:02:31;97591.81;;;-1.50;63.42
46476;BME280;53376;51.114;14.738;2022-12-16T04:05:11;97599.66;;;-1.50;63.47
46476;BME280;53376;51.114;14.738;2022-12-16T04:07:51;97598.78;;;-1.50;63.53
46476;BME280;53376;51.114;14.738;2022-12-16T04:10:29;97602.25;;;-1.51;63.33
46476;BME280;53376;51.114;14.738;2022-12-16T04:13:08;97601.44;;;-1.52;63.67
46476;BME280;53376;51.114;14.738;2022-12-16T04:15:35;97599.72;;;-1.53;63.61
46476;BME280;53376;51.114;14.738;2022-12-16T04:18:18;97604.91;;;-1.53;63.54
46476;BME280;53376;51.114;14.738;2022-12-16T04:27:50;97611.13;;;-1.58;63.97
46476;BME280;53376;51.114;14.738;2022-12-16T04:30:30;97615.44;;;-1.57;64.00
46476;BME280;53376;51.114;14.738;2022-12-16T04:33:02;97611.06;;;-1.55;63.86
46476;BME280;53376;51.114;14.738;2022-12-16T04:35:46;97614.66;;;-1.61;63.76
46476;BME280;53376;51.114;14.738;2022-12-16T04:38:13;97636.25;;;-1.54;64.14
46476;BME280;53376;51.114;14.738;2022-12-16T04:40:53;97635.38;;;-1.55;64.20
46476;BME280;53376;51.114;14.738;2022-12-16T04:43:21;97633.69;;;-1.57;64.29
46476;BME280;53376;51.114;14.738;2022-12-16T04:56:17;97647.50;;;-1.54;64.61
46476;BME280;53376;51.114;14.738;2022-12-16T04:58:57;97648.41;;;-1.55;64.80
46476;BME280;53376;51.114;14.738;2022-12-16T05:01:24;97646.72;;;-1.56;64.74
46476;BME280;53376;51.114;14.738;2022-12-16T05:04:05;97651.03;;;-1.56;64.85
46476;BME280;53376;51.114;14.738;2022-12-16T05:06:32;97653.66;;;-1.56;65.03
46476;BME280;53376;51.114;14.738;2022-12-16T05:23:09;97693.53;;;-1.53;65.19
46476;BME280;53376;51.114;14.738;2022-12-16T05:25:49;97690.03;;;-1.52;65.27
46476;BME280;53376;51.114;14.738;2022-12-16T05:28:29;97691.75;;;-1.51;65.51
46476;BME280;53376;51.114;14.738;2022-12-16T05:30:56;97689.16;;;-1.51;65.36
46476;BME280;53376;51.114;14.738;2022-12-16T05:33:36;97691.75;;;-1.51;65.42
46476;BME280;53376;51.114;14.738;2022-12-16T05:36:03;97685.66;;;-1.50;65.57
46476;BME280;53376;51.114;14.738;2022-12-16T05:49:15;97682.19;;;-1.50;65.89
46476;BME280;53376;51.114;14.738;2022-12-16T05:51:55;97679.53;;;-1.49;66.01
46476;BME280;53376;51.114;14.738;2022-12-16T05:54:22;97674.31;;;-1.49;65.89
46476;BME280;53376;51.114;14.738;2022-12-16T05:57:02;97671.75;;;-1.50;66.13
46476;BME280;53376;51.114;14.738;2022-12-16T05:59:29;97675.19;;;-1.48;65.86
46476;BME280;53376;51.114;14.738;2022-12-16T06:02:09;97674.31;;;-1.47;66.17
46476;BME280;53376;51.114;14.738;2022-12-16T06:14:55;97679.53;;;-1.49;65.79
46476;BME280;53376;51.114;14.738;2022-12-16T06:17:34;97684.75;;;-1.49;65.91
46476;BME280;53376;51.114;14.738;2022-12-16T06:20:14;97683.91;;;-1.49;65.66
46476;BME280;53376;51.114;14.738;2022-12-16T06:22:41;97690.88;;;-1.50;65.76
46476;BME280;53376;51.114;14.738;2022-12-16T06:25:21;97688.31;;;-1.53;65.64
46476;BME280;53376;51.114;14.738;2022-12-16T06:27:50;97692.69;;;-1.53;65.53
46476;BME280;53376;51.114;14.738;2022-12-16T06:44:21;97706.50;;;-1.50;65.13
46476;BME280;53376;51.114;14.738;2022-12-16T06:46:48;97724.75;;;-1.50;65.07
46476;BME280;53376;51.114;14.738;2022-12-16T06:49:28;97721.31;;;-1.52;65.03
46476;BME280;53376;51.114;14.738;2022-12-16T06:51:55;97717.81;;;-1.51;65.13
46476;BME280;53376;51.114;14.738;2022-12-16T06:54:35;97718.66;;;-1.50;65.38
46476;BME280;53376;51.114;14.738;2022-12-16T06:57:04;97728.25;;;-1.51;65.35
46476;BME280;53376;51.114;14.738;2022-12-16T07:10:14;97730.84;;;-1.51;65.11
46476;BME280;53376;51.114;14.738;2022-12-16T07:12:59;97736.94;;;-1.52;65.10
46476;BME280;53376;51.114;14.738;2022-12-16T07:15:32;97746.50;;;-1.52;65.20
46476;BME280;53376;51.114;14.738;2022-12-16T07:18:12;97747.38;;;-1.52;65.31
46476;BME280;53376;51.114;14.738;2022-12-16T07:20:39;97754.31;;;-1.52;65.34
46476;BME280;53376;51.114;14.738;2022-12-16T07:23:19;97752.59;;;-1.52;65.13
46476;BME280;53376;51.114;14.738;2022-12-16T07:36:03;97773.50;;;-1.55;65.32
46476;BME280;53376;51.114;14.738;2022-12-16T07:38:44;97783.00;;;-1.52;65.16
46476;BME280;53376;51.114;14.738;2022-12-16T07:41:24;97783.88;;;-1.52;65.39
46476;BME280;53376;51.114;14.738;2022-12-16T07:43:51;97783.88;;;-1.52;65.17
46476;BME280;53376;51.114;14.738;2022-12-16T07:46:31;97789.06;;;-1.52;65.16
46476;BME280;53376;51.114;14.738;2022-12-16T08:02:40;97802.03;;;-1.49;65.20
46476;BME280;53376;51.114;14.738;2022-12-16T08:05:20;97814.22;;;-1.49;65.29
46476;BME280;53376;51.114;14.738;2022-12-16T08:07:47;97799.41;;;-1.49;65.23
46476;BME280;53376;51.114;14.738;2022-12-16T08:10:20;97809.84;;;-1.47;65.62
46476;BME280;53376;51.114;14.738;2022-12-16T08:13:02;97806.34;;;-1.48;65.50
46476;BME280;53376;51.114;14.738;2022-12-16T08:15:30;97815.00;;;-1.46;65.42
46476;BME280;53376;51.114;14.738;2022-12-16T08:18:12;97817.63;;;-1.46;65.37
46476;BME280;53376;51.114;14.738;2022-12-16T08:30:53;97832.38;;;-1.44;65.62
46476;BME280;53376;51.114;14.738;2022-12-16T08:33:35;97832.28;;;-1.41;65.63
46476;BME280;53376;51.114;14.738;2022-12-16T08:36:15;97837.44;;;-1.38;65.58
46476;BME280;53376;51.114;14.738;2022-12-16T08:38:42;97832.25;;;-1.38;65.62
46476;BME280;53376;51.114;14.738;2022-12-16T08:41:23;97847.84;;;-1.37;65.72
46476;BME280;53376;51.114;14.738;2022-12-16T08:57:31;97859.81;;;-1.28;65.59
46476;BME280;53376;51.114;14.738;2022-12-16T09:00:12;97863.25;;;-1.26;65.49
46476;BME280;53376;51.114;14.738;2022-12-16T09:02:39;97877.09;;;-1.24;65.37
46476;BME280;53376;51.114;14.738;2022-12-16T09:05:19;97862.34;;;-1.23;65.55
46476;BME280;53376;51.114;14.738;2022-12-16T09:07:46;97864.91;;;-1.22;65.45
46476;BME280;53376;51.114;14.738;2022-12-16T09:10:27;97863.97;;;-1.19;65.27
46476;BME280;53376;51.114;14.738;2022-12-16T09:13:04;97864.84;;;-1.19;65.40
46476;BME280;53376;51.114;14.738;2022-12-16T09:22:50;97859.53;;;-1.16;65.34
46476;BME280;53376;51.114;14.738;2022-12-16T09:25:30;97863.00;;;-1.14;65.08
46476;BME280;53376;51.114;14.738;2022-12-16T09:28:12;97870.78;;;-1.12;65.13
46476;BME280;53376;51.114;14.738;2022-12-16T09:30:39;97862.94;;;-1.12;65.45
46476;BME280;53376;51.114;14.738;2022-12-16T09:33:19;97867.28;;;-1.11;65.14
46476;BME280;53376;51.114;14.738;2022-12-16T09:35:46;97869.00;;;-1.10;65.18
46476;BME280;53376;51.114;14.738;2022-12-16T09:38:27;97874.13;;;-1.07;65.22
46476;BME280;53376;51.114;14.738;2022-12-16T09:51:12;97885.25;;;-0.99;65.05
46476;BME280;53376;51.114;14.738;2022-12-16T09:53:55;97878.28;;;-0.96;65.23
46476;BME280;53376;51.114;14.738;2022-12-16T09:56:36;97879.97;;;-0.95;65.11
46476;BME280;53376;51.114;14.738;2022-12-16T09:59:10;97892.94;;;-0.92;64.88
46476;BME280;53376;51.114;14.738;2022-12-16T10:01:52;97893.78;;;-0.90;64.89
46476;BME280;53376;51.114;14.738;2022-12-16T10:17:26;97902.19;;;-0.77;64.88
46476;BME280;53376;51.114;14.738;2022-12-16T10:20:15;97905.63;;;-0.75;64.59
46476;BME280;53376;51.114;14.738;2022-12-16T10:22:59;97904.69;;;-0.74;64.54
46476;BME280;53376;51.114;14.738;2022-12-16T10:25:50;97902.94;;;-0.72;64.60
46476;BME280;53376;51.114;14.738;2022-12-16T10:28:41;97895.94;;;-0.70;64.61
46476;BME280;53376;51.114;14.738;2022-12-16T10:31:24;97894.09;;;-0.67;64.76
46476;BME280;53376;51.114;14.738;2022-12-16T10:44:24;97880.72;;;-0.53;64.54
46476;BME280;53376;51.114;14.738;2022-12-16T10:47:05;97882.44;;;-0.52;64.53
46476;BME280;53376;51.114;14.738;2022-12-16T10:49:52;97884.16;;;-0.51;64.54
46476;BME280;53376;51.114;14.738;2022-12-16T10:52:27;97898.88;;;-0.48;64.44
46476;BME280;53376;51.114;14.738;2022-12-16T10:55:18;97898.00;;;-0.47;64.52
46476;BME280;53376;51.114;14.738;2022-12-16T10:58:13;97899.75;;;-0.47;64.45
46476;BME280;53376;51.114;14.738;2022-12-16T11:11:29;97904.97;;;-0.47;64.18
46476;BME280;53376;51.114;14.738;2022-12-16T11:14:15;97905.84;;;-0.47;64.22
46476;BME280;53376;51.114;14.738;2022-12-16T11:17:11;97916.28;;;-0.49;63.88
46476;BME280;53376;51.114;14.738;2022-12-16T11:20:12;97908.41;;;-0.45;64.04
46476;BME280;53376;51.114;14.738;2022-12-16T11:23:07;97902.31;;;-0.46;63.81
46476;BME280;53376;51.114;14.738;2022-12-16T11:36:31;97923.97;;;-0.42;63.69
46476;BME280;53376;51.114;14.738;2022-12-16T11:39:19;97930.91;;;-0.41;63.77
46476;BME280;53376;51.114;14.738;2022-12-16T11:41:59;97932.63;;;-0.40;63.70
46476;BME280;53376;51.114;14.738;2022-12-16T11:44:43;97932.56;;;-0.37;63.70
46476;BME280;53376;51.114;14.738;2022-12-16T11:47:25;97932.56;;;-0.37;63.97
46476;BME280;53376;51.114;14.738;2022-12-16T11:50:17;97928.16;;;-0.35;64.00
46476;BME280;53376;51.114;14.738;2022-12-16T11:52:56;97935.06;;;-0.33;64.06
46476;BME280;53376;51.114;14.738;2022-12-16T12:02:47;97940.31;;;-0.34;63.90
46476;BME280;53376;51.114;14.738;2022-12-16T12:05:35;97939.44;;;-0.33;63.99
46476;BME280;53376;51.114;14.738;2022-12-16T12:08:24;97949.00;;;-0.32;64.07
46476;BME280;53376;51.114;14.738;2022-12-16T12:11:09;97946.38;;;-0.32;64.05
46476;BME280;53376;51.114;14.738;2022-12-16T12:14:06;97946.38;;;-0.32;63.86
46476;BME280;53376;51.114;14.738;2022-12-16T12:16:57;97958.50;;;-0.31;64.06
46476;BME280;53376;51.114;14.738;2022-12-16T12:30:17;97965.47;;;-0.30;64.10
46476;BME280;53376;51.114;14.738;2022-12-16T12:33:16;97970.69;;;-0.30;64.13
46476;BME280;53376;51.114;14.738;2022-12-16T12:36:14;97967.19;;;-0.29;64.25
46476;BME280;53376;51.114;14.738;2022-12-16T12:39:09;97983.75;;;-0.30;64.12
46476;BME280;53376;51.114;14.738;2022-12-16T12:42:01;97986.34;;;-0.30;64.13
46476;BME280;53376;51.114;14.738;2022-12-16T12:58:48;97991.66;;;-0.33;63.82
46476;BME280;53376;51.114;14.738;2022-12-16T13:01:27;97988.22;;;-0.35;63.81
46476;BME280;53376;51.114;14.738;2022-12-16T13:04:14;97994.38;;;-0.38;63.71
46476;BME280;53376;51.114;14.738;2022-12-16T13:06:51;98003.97;;;-0.38;63.59
46476;BME280;53376;51.114;14.738;2022-12-16T13:09:33;98012.75;;;-0.41;63.57
46476;BME280;53376;51.114;14.738;2022-12-16T13:12:20;98003.19;;;-0.42;63.71
46476;BME280;53376;51.114;14.738;2022-12-16T13:25:38;98015.50;;;-0.47;63.66
46476;BME280;53376;51.114;14.738;2022-12-16T13:28:26;98019.84;;;-0.47;63.45
46476;BME280;53376;51.114;14.738;2022-12-16T13:31:03;98023.31;;;-0.49;63.60
46476;BME280;53376;51.114;14.738;2022-12-16T13:33:50;98016.38;;;-0.50;63.62
46476;BME280;53376;51.114;14.738;2022-12-16T13:36:33;98025.13;;;-0.51;63.65
46476;BME280;53376;51.114;14.738;2022-12-16T13:49:47;98029.56;;;-0.56;63.65
46476;BME280;53376;51.114;14.738;2022-12-16T13:52:41;98042.63;;;-0.56;63.83
46476;BME280;53376;51.114;14.738;2022-12-16T13:55:19;98046.16;;;-0.57;63.58
46476;BME280;53376;51.114;14.738;2022-12-16T13:58:08;98047.09;;;-0.61;63.71
46476;BME280;53376;51.114;14.738;2022-12-16T14:01:04;98053.19;;;-0.60;63.54
46476;BME280;53376;51.114;14.738;2022-12-16T14:18:04;98081.91;;;-0.62;63.85
46476;BME280;53376;51.114;14.738;2022-12-16T14:20:54;98081.91;;;-0.62;64.12
46476;BME280;53376;51.114;14.738;2022-12-16T14:23:45;98081.94;;;-0.63;64.23
46476;BME280;53376;51.114;14.738;2022-12-16T14:26:34;98082.81;;;-0.63;64.10
46476;BME280;53376;51.114;14.738;2022-12-16T14:29:22;98090.66;;;-0.63;64.12
46476;BME280;53376;51.114;14.738;2022-12-16T14:31:57;98092.38;;;-0.63;64.30
46476;BME280;53376;51.114;14.738;2022-12-16T14:45:21;98111.53;;;-0.63;63.97
46476;BME280;53376;51.114;14.738;2022-12-16T14:48:22;98109.81;;;-0.64;64.06
46476;BME280;53376;51.114;14.738;2022-12-16T14:51:14;98123.69;;;-0.62;64.10
46476;BME280;53376;51.114;14.738;2022-12-16T14:54:16;98126.28;;;-0.60;64.20
46476;BME280;53376;51.114;14.738;2022-12-16T14:56:56;98129.72;;;-0.60;64.33
46476;BME280;53376;51.114;14.738;2022-12-16T15:10:12;98147.03;;;-0.56;64.47
46476;BME280;53376;51.114;14.738;2022-12-16T15:12:53;98156.66;;;-0.56;64.50
46476;BME280;53376;51.114;14.738;2022-12-16T15:15:29;98152.28;;;-0.56;64.61
46476;BME280;53376;51.114;14.738;2022-12-16T15:18:18;98157.50;;;-0.56;64.59
46476;BME280;53376;51.114;14.738;2022-12-16T15:20:54;98161.00;;;-0.57;64.67
46476;BME280;53376;51.114;14.738;2022-12-16T15:23:38;98162.72;;;-0.56;64.60
46476;BME280;53376;51.114;14.738;2022-12-16T15:36:37;98179.28;;;-0.57;64.77
46476;BME280;53376;51.114;14.738;2022-12-16T15:39:20;98182.75;;;-0.56;64.54
46476;BME280;53376;51.114;14.738;2022-12-16T15:42:02;98187.13;;;-0.57;64.72
46476;BME280;53376;51.114;14.738;2022-12-16T15:44:29;98188.81;;;-0.56;64.57
46476;BME280;53376;51.114;14.738;2022-12-16T15:47:19;98193.19;;;-0.56;64.75
46476;BME280;53376;51.114;14.738;2022-12-16T15:49:55;98204.47;;;-0.56;64.71
46476;BME280;53376;51.114;14.738;2022-12-16T15:52:41;98206.25;;;-0.56;64.75
46476;BME280;53376;51.114;14.738;2022-12-16T16:05:30;98219.28;;;-0.56;64.69
46476;BME280;53376;51.114;14.738;2022-12-16T16:08:12;98225.38;;;-0.56;64.77
46476;BME280;53376;51.114;14.738;2022-12-16T16:10:52;98226.28;;;-0.57;64.74
46476;BME280;53376;51.114;14.738;2022-12-16T16:13:19;98228.91;;;-0.57;64.50
46476;BME280;53376;51.114;14.738;2022-12-16T16:16:00;98240.22;;;-0.58;64.67
46476;BME280;53376;51.114;14.738;2022-12-16T16:18:28;98234.13;;;-0.57;64.62
46476;BME280;53376;51.114;14.738;2022-12-16T16:31:40;98253.28;;;-0.58;64.64
46476;BME280;53376;51.114;14.738;2022-12-16T16:34:21;98256.75;;;-0.59;64.79
46476;BME280;53376;51.114;14.738;2022-12-16T16:36:57;98253.28;;;-0.58;64.67
46476;BME280;53376;51.114;14.738;2022-12-16T16:39:38;98258.50;;;-0.58;64.66
46476;BME280;53376;51.114;14.738;2022-12-16T16:42:04;98252.38;;;-0.58;64.68
46476;BME280;53376;51.114;14.738;2022-12-16T16:58:41;98275.06;;;-0.62;64.74
46476;BME280;53376;51.114;14.738;2022-12-16T17:01:24;98282.06;;;-0.62;64.78
46476;BME280;53376;51.114;14.738;2022-12-16T19:12:34;98421.47;;;-0.76;64.49
46476;BME280;53376;51.114;14.738;2022-12-16T19:15:14;98420.63;;;-0.76;64.62
46476;BME280;53376;51.114;14.738;2022-12-16T19:17:54;98431.06;;;-0.76;64.48
46476;BME280;53376;51.114;14.738;2022-12-16T19:20:21;98424.09;;;-0.76;64.50
46476;BME280;53376;51.114;14.738;2022-12-16T19:23:05;98440.63;;;-0.75;64.31
46476;BME280;53376;51.114;14.738;2022-12-16T19:39:13;98439.78;;;-0.77;64.67
46476;BME280;53376;51.114;14.738;2022-12-16T19:41:53;98440.66;;;-0.78;64.28
46476;BME280;53376;51.114;14.738;2022-12-16T19:44:22;98438.03;;;-0.78;64.40
46476;BME280;53376;51.114;14.738;2022-12-16T19:47:04;98438.94;;;-0.78;64.45
46476;BME280;53376;51.114;14.738;2022-12-16T19:49:31;98441.53;;;-0.79;64.71
46476;BME280;53376;51.114;14.738;2022-12-16T19:52:17;98445.84;;;-0.77;64.53
46476;BME280;53376;51.114;14.738;2022-12-16T20:05:00;98472.84;;;-0.79;64.50
46476;BME280;53376;51.114;14.738;2022-12-16T20:07:40;98466.78;;;-0.80;64.54
46476;BME280;53376;51.114;14.738;2022-12-16T20:10:20;98461.56;;;-0.80;64.43
46476;BME280;53376;51.114;14.738;2022-12-16T20:12:47;98465.91;;;-0.81;64.58
46476;BME280;53376;51.114;14.738;2022-12-16T20:15:20;98472.84;;;-0.79;64.40
46476;BME280;53376;51.114;14.738;2022-12-16T20:18:02;98474.56;;;-0.78;64.54
46476;BME280;53376;51.114;14.738;2022-12-16T20:30:58;98497.22;;;-0.81;64.77
46476;BME280;53376;51.114;14.738;2022-12-16T20:33:39;98500.69;;;-0.80;64.55
46476;BME280;53376;51.114;14.738;2022-12-16T20:36:20;98512.88;;;-0.81;64.38
46476;BME280;53376;51.114;14.738;2022-12-16T20:38:49;98516.38;;;-0.82;64.33
46476;BME280;53376;51.114;14.738;2022-12-16T20:41:29;98521.63;;;-0.82;64.41
46476;BME280;53376;51.114;14.738;2022-12-16T20:43:56;98525.03;;;-0.79;64.57
46476;BME280;53376;51.114;14.738;2022-12-16T20:46:38;98525.91;;;-0.81;64.39
46476;BME280;53376;51.114;14.738;2022-12-16T20:58:43;98519.00;;;-0.82;64.27
46476;BME280;53376;51.114;14.738;2022-12-16T21:01:22;98533.81;;;-0.84;64.22
46476;BME280;53376;51.114;14.738;2022-12-16T21:04:04;98536.38;;;-0.82;64.42
46476;BME280;53376;51.114;14.738;2022-12-16T21:06:34;98538.16;;;-0.83;64.59
46476;BME280;53376;51.114;14.738;2022-12-16T21:09:14;98540.75;;;-0.83;64.34
46476;BME280;53376;51.114;14.738;2022-12-16T21:11:41;98546.81;;;-0.82;64.39
46476;BME280;53376;51.114;14.738;2022-12-16T21:24:53;98565.13;;;-0.84;64.04
46476;BME280;53376;51.114;14.738;2022-12-16T21:27:33;98563.38;;;-0.85;64.13
46476;BME280;53376;51.114;14.738;2022-12-16T21:30:00;98566.00;;;-0.85;64.04
46476;BME280;53376;51.114;14.738;2022-12-16T21:32:33;98572.09;;;-0.86;63.82
46476;BME280;53376;51.114;14.738;2022-12-16T21:35:17;98579.09;;;-0.88;64.03
46476;BME280;53376;51.114;14.738;2022-12-16T21:37:44;98587.81;;;-0.89;63.99
46476;BME280;53376;51.114;14.738;2022-12-16T21:51:11;98599.13;;;-0.91;63.69
46476;BME280;53376;51.114;14.738;2022-12-16T21:53:52;98598.25;;;-0.92;63.79
46476;BME280;53376;51.114;14.738;2022-12-16T21:56:45;98608.69;;;-0.92;63.79
46476;BME280;53376;51.114;14.738;2022-12-16T21:59:29;98614.78;;;-0.93;63.70
46476;BME280;53376;51.114;14.738;2022-12-16T22:01:56;98613.91;;;-0.92;63.65
46476;BME280;53376;51.114;14.738;2022-12-16T22:04:35;98613.09;;;-0.94;63.85
46476;BME280;53376;51.114;14.738;2022-12-16T22:07:04;98615.69;;;-0.94;63.74
46476;BME280;53376;51.114;14.738;2022-12-16T22:20:14;98636.56;;;-0.94;63.71
46476;BME280;53376;51.114;14.738;2022-12-16T22:22:56;98646.13;;;-0.94;63.79
46476;BME280;53376;51.114;14.738;2022-12-16T22:25:23;98641.81;;;-0.97;63.76
46476;BME280;53376;51.114;14.738;2022-12-16T22:28:02;98630.53;;;-0.98;63.97
46476;BME280;53376;51.114;14.738;2022-12-16T22:30:29;98631.38;;;-0.97;63.93
46476;BME280;53376;51.114;14.738;2022-12-16T22:33:14;98633.09;;;-0.96;63.92
46476;BME280;53376;51.114;14.738;2022-12-16T22:46:05;98629.63;;;-0.95;63.70
46476;BME280;53376;51.114;14.738;2022-12-16T22:48:46;98631.34;;;-0.94;63.93
46476;BME280;53376;51.114;14.738;2022-12-16T22:51:28;98632.19;;;-0.93;63.87
46476;BME280;53376;51.114;14.738;2022-12-16T22:53:55;98636.56;;;-0.94;63.86
46476;BME280;53376;51.114;14.738;2022-12-16T22:56:36;98639.19;;;-0.94;63.88
46476;BME280;53376;51.114;14.738;2022-12-16T23:12:54;98661.81;;;-0.96;63.67
46476;BME280;53376;51.114;14.738;2022-12-16T23:15:34;98668.78;;;-0.96;63.55
46476;BME280;53376;51.114;14.738;2022-12-16T23:18:06;98670.50;;;-0.97;63.97
46476;BME280;53376;51.114;14.738;2022-12-16T23:20:48;98662.69;;;-0.97;63.89
46476;BME280;53376;51.114;14.738;2022-12-16T23:23:15;98667.91;;;-0.97;63.87
46476;BME280;53376;51.114;14.738;2022-12-16T23:25:56;98674.84;;;-0.96;63.84
46476;BME280;53376;51.114;14.738;2022-12-16T23:28:25;98673.13;;;-0.97;63.67
46476;BME280;53376;51.114;14.738;2022-12-16T23:38:10;98673.16;;;-1.00;64.08
46476;BME280;53376;51.114;14.738;2022-12-16T23:40:54;98669.66;;;-0.99;63.81
46476;BME280;53376;51.114;14.738;2022-12-16T23:43:36;98664.44;;;-0.99;63.92
46476;BME280;53376;51.114;14.738;2022-12-16T23:46:06;98659.22;;;-0.99;63.75
46476;BME280;53376;51.114;14.738;2022-12-16T23:48:46;98667.94;;;-1.00;63.81
46476;BME280;53376;51.114;14.738;2022-12-16T23:51:13;98669.66;;;-0.98;63.92
46476;BME280;53376;51.114;14.738;2022-12-16T23:53:56;98666.16;;;-0.98;64.04
